createdAt,value
2019-03-27T00:02:02.072Z,12.50
2019-03-27T00:04:30.460Z,12.67
2019-03-27T00:06:58.856Z,12.87
2019-03-27T00:09:27.245Z,12.93
2019-03-27T00:11:55.725Z,13.03
2019-03-27T00:14:24.129Z,12.83
2019-03-27T00:16:52.520Z,12.87
2019-03-27T00:19:20.920Z,12.40
2019-03-27T00:21:49.313Z,13.33
2019-03-27T00:24:17.700Z,12.87
2019-03-27T00:26:46.168Z,12.70
2019-03-27T00:29:14.562Z,14.03
2019-03-27T00:31:42.954Z,13.17
2019-03-27T00:34:11.344Z,12.23
2019-03-27T00:36:39.751Z,13.00
2019-03-27T00:39:08.143Z,12.17
2019-03-27T00:41:36.529Z,12.17
2019-03-27T00:44:04.916Z,12.50
2019-03-27T00:46:33.300Z,12.93
2019-03-27T00:49:01.721Z,13.10
2019-03-27T00:51:30.116Z,13.77
2019-03-27T00:53:58.509Z,13.13
2019-03-27T00:56:26.908Z,14.07
2019-03-27T00:58:55.293Z,14.97
2019-03-27T01:01:23.937Z,15.63
2019-03-27T01:03:52.328Z,16.33
2019-03-27T01:06:20.717Z,16.47
2019-03-27T01:08:49.110Z,16.60
2019-03-27T01:11:17.520Z,17.27
2019-03-27T01:13:45.903Z,17.60
2019-03-27T01:16:14.300Z,17.97
2019-03-27T01:18:42.689Z,19.43
2019-03-27T01:21:11.077Z,19.40
2019-03-27T01:23:39.470Z,20.23
2019-03-27T01:26:07.865Z,19.20
2019-03-27T01:28:36.261Z,19.47
2019-03-27T01:31:05.228Z,19.73
2019-03-27T01:33:33.633Z,21.97
2019-03-27T01:36:02.289Z,20.67
2019-03-27T01:38:30.677Z,20.57
2019-03-27T01:40:59.085Z,21.00
2019-03-27T01:43:27.497Z,22.33
2019-03-27T01:45:55.890Z,21.73
2019-03-27T01:48:24.280Z,21.80
2019-03-27T01:50:52.744Z,22.90
2019-03-27T01:53:21.133Z,22.53
2019-03-27T01:55:49.524Z,23.03
2019-03-27T01:58:17.929Z,24.97
2019-03-27T02:00:46.317Z,24.27
2019-03-27T02:03:14.946Z,23.70
2019-03-27T02:05:43.339Z,25.83
2019-03-27T02:08:11.728Z,23.20
2019-03-27T02:10:40.222Z,22.63
2019-03-27T02:13:27.946Z,24.83
2019-03-27T02:16:06.898Z,25.70
2019-03-27T02:18:26.784Z,27.10
2019-03-27T02:20:55.167Z,25.10
2019-03-27T02:23:23.591Z,23.60
2019-03-27T02:25:51.982Z,24.53
2019-03-27T02:28:20.373Z,25.17
2019-03-27T02:30:48.768Z,24.13
2019-03-27T02:33:17.178Z,24.17
2019-03-27T02:35:45.575Z,23.93
2019-03-27T02:38:14.032Z,24.03
2019-03-27T02:40:42.422Z,24.33
2019-03-27T02:43:10.822Z,24.67
2019-03-27T02:45:39.223Z,23.60
2019-03-27T02:48:07.609Z,23.13
2019-03-27T02:50:36.001Z,23.87
2019-03-27T02:53:04.461Z,23.67
2019-03-27T02:55:32.857Z,24.63
2019-03-27T02:58:01.282Z,25.33
2019-03-27T03:00:29.739Z,24.13
2019-03-27T03:02:58.184Z,25.57
2019-03-27T03:05:26.562Z,22.73
2019-03-27T03:07:54.949Z,23.33
2019-03-27T03:10:23.414Z,24.83
2019-03-27T03:12:51.808Z,25.00
2019-03-27T03:15:23.078Z,25.23
2019-03-27T03:17:51.527Z,23.80
2019-03-27T03:20:19.920Z,24.37
2019-03-27T03:22:48.306Z,23.13
2019-03-27T03:25:16.760Z,22.30
2019-03-27T03:27:45.161Z,22.83
2019-03-27T03:30:14.607Z,23.00
2019-03-27T03:32:43.670Z,23.37
2019-03-27T03:35:32.926Z,23.37
2019-03-27T03:38:01.326Z,23.37
2019-03-27T03:40:29.709Z,23.80
2019-03-27T03:42:58.100Z,23.77
2019-03-27T03:45:26.519Z,24.47
2019-03-27T03:47:54.908Z,24.40
2019-03-27T03:50:29.321Z,23.73
2019-03-27T03:52:58.552Z,24.80
2019-03-27T03:55:27.082Z,25.00
2019-03-27T03:57:56.427Z,25.23
2019-03-27T04:00:26.425Z,23.80
2019-03-27T04:02:55.948Z,26.50
2019-03-27T04:05:24.429Z,25.33
2019-03-27T04:07:52.828Z,26.93
2019-03-27T04:10:21.220Z,27.40
2019-03-27T04:12:49.617Z,27.77
2019-03-27T04:15:18.033Z,27.93
2019-03-27T04:17:46.425Z,27.30
2019-03-27T04:20:14.810Z,28.47
2019-03-27T04:22:43.209Z,29.17
2019-03-27T04:25:11.592Z,29.03
2019-03-27T04:27:39.999Z,29.90
2019-03-27T04:30:09.221Z,28.90
2019-03-27T04:32:37.632Z,30.70
2019-03-27T04:35:07.053Z,31.43
2019-03-27T04:37:35.433Z,31.07
2019-03-27T04:40:06.336Z,31.47
2019-03-27T04:42:34.722Z,31.33
2019-03-27T04:45:03.118Z,34.23
2019-03-27T04:47:32.707Z,34.20
2019-03-27T04:50:01.758Z,32.47
2019-03-27T04:52:30.137Z,34.70
2019-03-27T04:54:58.540Z,34.60
2019-03-27T04:57:26.932Z,38.90
2019-03-27T04:59:55.319Z,42.93
2019-03-27T05:02:23.731Z,40.20
2019-03-27T05:04:53.680Z,40.13
2019-03-27T05:07:22.329Z,41.37
2019-03-27T05:09:50.720Z,41.63
2019-03-27T05:12:19.134Z,42.30
2019-03-27T05:14:47.521Z,40.03
2019-03-27T05:17:15.908Z,39.30
2019-03-27T05:19:44.317Z,38.60
2019-03-27T05:22:12.696Z,38.20
2019-03-27T05:24:41.093Z,38.53
2019-03-27T05:27:09.491Z,36.00
2019-03-27T05:29:37.911Z,36.63
2019-03-27T05:32:06.309Z,37.83
2019-03-27T05:34:34.700Z,37.83
2019-03-27T05:37:03.119Z,35.87
2019-03-27T05:39:31.496Z,34.67
2019-03-27T05:41:59.901Z,34.57
2019-03-27T05:44:28.290Z,33.97
2019-03-27T05:46:56.684Z,34.13
2019-03-27T05:49:25.084Z,32.53
2019-03-27T05:51:53.504Z,33.03
2019-03-27T05:54:21.876Z,28.30
2019-03-27T05:56:50.268Z,29.30
2019-03-27T05:59:18.657Z,26.33
2019-03-27T06:01:47.045Z,28.10
2019-03-27T06:04:15.458Z,27.93
2019-03-27T06:06:44.014Z,27.73
2019-03-27T06:09:12.495Z,27.50
2019-03-27T06:11:40.877Z,28.07
2019-03-27T06:14:09.333Z,28.83
2019-03-27T06:16:37.746Z,28.57
2019-03-27T06:19:11.280Z,27.33
2019-03-27T06:21:39.665Z,27.23
2019-03-27T06:24:08.069Z,27.50
2019-03-27T06:26:36.526Z,27.20
2019-03-27T06:29:04.934Z,26.83
2019-03-27T06:31:33.325Z,24.67
2019-03-27T06:34:01.708Z,25.17
2019-03-27T06:36:30.128Z,24.83
2019-03-27T06:38:58.522Z,25.10
2019-03-27T06:41:26.920Z,26.27
2019-03-27T06:43:55.380Z,26.37
2019-03-27T06:46:23.765Z,25.90
2019-03-27T06:48:52.156Z,27.90
2019-03-27T06:51:20.557Z,27.20
2019-03-27T06:53:48.970Z,26.00
2019-03-27T06:56:17.420Z,25.33
2019-03-27T06:58:54.365Z,26.10
2019-03-27T07:01:15.941Z,25.53
2019-03-27T07:03:44.355Z,25.27
2019-03-27T07:06:12.740Z,25.37
2019-03-27T07:08:41.215Z,26.60
2019-03-27T07:11:09.688Z,25.97
2019-03-27T07:13:38.089Z,26.07
2019-03-27T07:16:06.480Z,26.43
2019-03-27T07:18:40.453Z,26.10
2019-03-27T07:21:05.070Z,26.70
2019-03-27T07:23:33.461Z,28.63
2019-03-27T07:26:01.861Z,27.87
2019-03-27T07:28:30.254Z,27.00
2019-03-27T07:30:58.637Z,26.47
2019-03-27T07:33:27.026Z,24.73
2019-03-27T07:35:55.432Z,26.00
2019-03-27T07:38:23.823Z,26.27
2019-03-27T07:40:52.222Z,26.73
2019-03-27T07:43:20.620Z,26.03
2019-03-27T07:45:48.998Z,23.27
2019-03-27T07:48:17.396Z,23.90
2019-03-27T07:50:45.808Z,22.60
2019-03-27T07:53:14.204Z,23.37
2019-03-27T07:55:42.588Z,23.77
2019-03-27T07:58:10.968Z,21.10
2019-03-27T08:00:39.368Z,22.67
2019-03-27T08:03:07.773Z,23.60
2019-03-27T08:05:36.165Z,22.00
2019-03-27T08:08:04.577Z,22.70
2019-03-27T08:10:33.052Z,21.17
2019-03-27T08:13:01.440Z,19.63
2019-03-27T08:15:29.840Z,20.33
2019-03-27T08:17:58.238Z,22.13
2019-03-27T08:20:26.624Z,21.10
2019-03-27T08:22:55.093Z,22.23
2019-03-27T08:25:23.503Z,22.00
2019-03-27T08:27:51.963Z,19.33
2019-03-27T08:30:21.196Z,22.40
2019-03-27T08:32:49.594Z,20.50
2019-03-27T08:35:17.992Z,20.30
2019-03-27T08:37:46.388Z,19.93
2019-03-27T08:40:15.649Z,20.37
2019-03-27T08:42:45.002Z,18.77
2019-03-27T08:45:14.231Z,19.93
2019-03-27T08:47:42.627Z,19.80
2019-03-27T08:50:12.743Z,21.30
2019-03-27T08:52:41.228Z,19.73
2019-03-27T08:55:13.796Z,19.20
2019-03-27T08:57:41.573Z,19.70
2019-03-27T09:00:13.019Z,19.53
2019-03-27T09:02:41.415Z,17.43
2019-03-27T09:05:11.245Z,15.80
2019-03-27T09:07:39.707Z,14.73
2019-03-27T09:10:09.841Z,12.10
2019-03-27T09:12:38.236Z,12.60
2019-03-27T09:15:09.564Z,12.73
2019-03-27T09:17:38.209Z,13.63
2019-03-27T09:20:07.832Z,12.47
2019-03-27T09:22:36.314Z,7.47
2019-03-27T09:25:06.031Z,7.37
2019-03-27T09:27:34.565Z,10.87
2019-03-27T09:30:04.504Z,12.60
2019-03-27T09:32:33.143Z,12.50
2019-03-27T09:35:01.534Z,11.63
2019-03-27T09:37:29.957Z,12.73
2019-03-27T09:39:58.350Z,11.90
2019-03-27T09:42:26.760Z,13.20
2019-03-27T09:44:55.148Z,12.47
2019-03-27T09:47:23.558Z,12.83
2019-03-27T09:49:51.945Z,12.53
2019-03-27T09:52:20.347Z,11.20
2019-03-27T09:54:48.812Z,10.90
2019-03-27T09:57:17.218Z,10.60
2019-03-27T09:59:45.613Z,9.50
2019-03-27T10:02:14.111Z,11.13
2019-03-27T10:04:42.499Z,9.33
2019-03-27T10:07:10.893Z,9.23
2019-03-27T10:09:39.391Z,11.50
2019-03-27T10:12:07.779Z,10.50
2019-03-27T10:14:36.249Z,10.13
2019-03-27T10:17:04.644Z,10.60
2019-03-27T10:19:33.048Z,7.20
2019-03-27T10:22:01.437Z,6.57
2019-03-27T10:24:29.900Z,8.70
2019-03-27T10:26:58.374Z,8.77
2019-03-27T10:29:26.762Z,8.57
2019-03-27T10:31:55.226Z,9.43
2019-03-27T10:34:23.621Z,8.63
2019-03-27T10:36:52.013Z,7.70
2019-03-27T10:39:20.481Z,8.70
2019-03-27T10:41:48.882Z,7.87
2019-03-27T10:44:17.657Z,9.13
2019-03-27T10:46:46.736Z,8.93
2019-03-27T10:49:15.132Z,7.83
2019-03-27T10:51:43.521Z,7.23
2019-03-27T10:54:11.982Z,8.00
2019-03-27T10:56:40.454Z,7.57
2019-03-27T10:59:08.935Z,6.13
2019-03-27T11:01:37.332Z,6.13
2019-03-27T11:04:05.724Z,6.40
2019-03-27T11:06:34.124Z,6.43
2019-03-27T11:09:02.602Z,7.60
2019-03-27T11:11:31.086Z,6.00
2019-03-27T11:13:59.481Z,6.77
2019-03-27T11:16:27.882Z,6.73
2019-03-27T11:18:56.293Z,6.97
2019-03-27T11:21:24.677Z,6.43
2019-03-27T11:23:53.137Z,5.30
2019-03-27T11:26:21.551Z,5.40
2019-03-27T11:28:49.949Z,5.77
2019-03-27T11:31:18.355Z,6.10
2019-03-27T11:33:46.759Z,6.17
2019-03-27T11:36:15.220Z,6.90
2019-03-27T11:38:43.601Z,6.10
2019-03-27T11:41:12.435Z,4.90
2019-03-27T11:43:53.839Z,5.27
2019-03-27T11:46:11.503Z,5.00
2019-03-27T11:48:39.962Z,4.97
2019-03-27T11:51:08.410Z,5.50
2019-03-27T11:53:36.804Z,6.33
2019-03-27T11:56:05.269Z,4.73
2019-03-27T11:58:33.677Z,5.37
2019-03-27T12:01:02.075Z,5.33
2019-03-27T12:03:30.464Z,5.00
2019-03-27T12:05:58.923Z,5.70
2019-03-27T12:08:28.256Z,5.97
2019-03-27T12:10:56.661Z,5.97
2019-03-27T12:13:25.050Z,5.93
2019-03-27T12:15:53.565Z,6.37
2019-03-27T12:18:22.148Z,6.50
2019-03-27T12:20:58.758Z,6.13
2019-03-27T12:23:20.649Z,6.20
2019-03-27T12:25:49.050Z,6.70
2019-03-27T12:28:17.509Z,6.60
2019-03-27T12:30:45.911Z,6.70
2019-03-27T12:33:14.304Z,6.90
2019-03-27T12:35:42.700Z,6.47
2019-03-27T12:38:11.101Z,6.70
2019-03-27T12:40:39.553Z,6.73
2019-03-27T12:43:08.021Z,6.50
2019-03-27T12:45:36.413Z,7.00
2019-03-27T12:48:06.928Z,6.97
2019-03-27T12:50:35.389Z,7.57
2019-03-27T12:53:04.748Z,6.70
2019-03-27T12:55:33.214Z,6.53
2019-03-27T12:58:01.602Z,6.40
2019-03-27T13:00:30.075Z,7.70
2019-03-27T13:02:58.504Z,6.77
2019-03-27T13:05:26.887Z,6.43
2019-03-27T13:07:55.368Z,6.67
2019-03-27T13:10:23.757Z,6.40
2019-03-27T13:12:52.216Z,5.73
2019-03-27T13:15:20.685Z,7.00
2019-03-27T13:17:49.105Z,6.70
2019-03-27T13:20:19.135Z,6.20
2019-03-27T13:22:47.524Z,6.40
2019-03-27T13:25:16.852Z,6.87
2019-03-27T13:27:47.500Z,6.07
2019-03-27T13:30:17.090Z,6.73
2019-03-27T13:32:45.488Z,6.80
2019-03-27T13:35:14.029Z,6.30
2019-03-27T13:37:42.415Z,6.40
2019-03-27T13:40:12.079Z,6.73
2019-03-27T13:42:40.512Z,6.80
2019-03-27T13:45:11.405Z,6.73
2019-03-27T13:47:39.793Z,6.83
2019-03-27T13:50:12.939Z,7.23
2019-03-27T13:52:41.158Z,7.30
2019-03-27T13:55:09.676Z,6.50
2019-03-27T13:57:38.101Z,6.93
2019-03-27T14:00:10.309Z,6.70
2019-03-27T14:02:38.696Z,7.03
2019-03-27T14:05:09.409Z,7.80
2019-03-27T14:07:37.799Z,7.80
2019-03-27T14:10:08.638Z,7.70
2019-03-27T14:12:37.035Z,8.77
2019-03-27T14:15:11.509Z,8.17
2019-03-27T14:17:39.983Z,9.03
2019-03-27T14:20:10.206Z,8.90
2019-03-27T14:22:38.614Z,7.80
2019-03-27T14:25:10.209Z,8.30
2019-03-27T14:27:38.598Z,8.90
2019-03-27T14:30:10.081Z,8.70
2019-03-27T14:32:38.511Z,9.00
2019-03-27T14:35:07.438Z,8.50
2019-03-27T14:37:35.844Z,9.43
2019-03-27T14:40:07.641Z,9.20
2019-03-27T14:42:36.112Z,9.33
2019-03-27T14:45:07.508Z,9.37
2019-03-27T14:47:36.128Z,8.97
2019-03-27T14:50:07.585Z,9.07
2019-03-27T14:52:35.987Z,8.90
2019-03-27T14:55:07.550Z,8.90
2019-03-27T14:57:37.128Z,7.93
2019-03-27T15:00:10.989Z,8.33
2019-03-27T15:02:40.212Z,9.13
2019-03-27T15:05:10.848Z,8.27
2019-03-27T15:07:39.241Z,9.03
2019-03-27T15:10:09.173Z,8.97
2019-03-27T15:12:37.706Z,8.83
2019-03-27T15:15:08.829Z,8.73
2019-03-27T15:17:37.558Z,8.80
2019-03-27T15:20:08.514Z,8.30
2019-03-27T15:22:37.731Z,8.30
2019-03-27T15:25:07.369Z,9.60
2019-03-27T15:27:36.732Z,8.90
2019-03-27T15:30:08.286Z,9.03
2019-03-27T15:32:36.813Z,8.37
2019-03-27T15:35:06.928Z,8.47
2019-03-27T15:37:35.321Z,8.43
2019-03-27T15:40:04.880Z,8.47
2019-03-27T15:42:33.435Z,8.57
2019-03-27T15:45:02.401Z,7.77
2019-03-27T15:47:30.792Z,8.20
2019-03-27T15:49:59.185Z,8.13
2019-03-27T15:52:36.339Z,7.67
2019-03-27T15:54:57.705Z,8.10
2019-03-27T15:57:26.100Z,7.60
2019-03-27T15:59:54.556Z,8.57
2019-03-27T16:02:23.034Z,8.33
2019-03-27T16:04:51.424Z,8.20
2019-03-27T16:07:19.819Z,8.30
2019-03-27T16:09:48.223Z,7.97
2019-03-27T16:12:16.606Z,8.27
2019-03-27T16:14:44.996Z,7.83
2019-03-27T16:17:14.132Z,7.17
2019-03-27T16:19:43.240Z,7.50
2019-03-27T16:22:11.658Z,7.47
2019-03-27T16:24:40.045Z,7.63
2019-03-27T16:27:08.441Z,7.70
2019-03-27T16:29:36.828Z,7.00
2019-03-27T16:32:07.093Z,7.60
2019-03-27T16:34:36.453Z,7.63
2019-03-27T16:37:04.850Z,8.00
2019-03-27T16:39:33.242Z,7.60
2019-03-27T16:42:01.630Z,7.43
2019-03-27T16:44:30.023Z,7.60
2019-03-27T16:46:59.378Z,7.93
2019-03-27T16:49:27.764Z,7.80
2019-03-27T16:51:56.636Z,7.87
2019-03-27T16:54:26.363Z,8.00
2019-03-27T16:56:54.781Z,7.50
2019-03-27T16:59:23.181Z,8.20
2019-03-27T17:01:51.583Z,8.13
2019-03-27T17:04:19.984Z,8.50
2019-03-27T17:06:48.365Z,7.77
2019-03-27T17:09:16.766Z,8.00
2019-03-27T17:11:45.152Z,8.40
2019-03-27T17:14:13.565Z,8.03
2019-03-27T17:16:42.106Z,8.37
2019-03-27T17:19:11.072Z,8.53
2019-03-27T17:21:39.510Z,8.60
2019-03-27T17:24:07.901Z,8.53
2019-03-27T17:26:37.932Z,9.00
2019-03-27T17:29:06.328Z,8.40
2019-03-27T17:31:34.729Z,7.93
2019-03-27T17:34:03.120Z,7.93
2019-03-27T17:36:31.508Z,7.67
2019-03-27T17:38:59.919Z,8.20
2019-03-27T17:41:28.516Z,8.20
2019-03-27T17:43:57.476Z,8.70
2019-03-27T17:46:25.873Z,8.13
2019-03-27T17:48:54.264Z,9.30
2019-03-27T17:51:22.749Z,9.57
2019-03-27T17:53:51.225Z,9.30
2019-03-27T17:56:19.601Z,9.70
2019-03-27T17:58:48.005Z,9.20
2019-03-27T18:01:16.400Z,8.80
2019-03-27T18:03:44.780Z,10.20
2019-03-27T18:06:13.269Z,11.10
2019-03-27T18:08:41.658Z,9.70
2019-03-27T18:11:10.051Z,9.27
2019-03-27T18:13:38.525Z,9.07
2019-03-27T18:16:06.893Z,8.77
2019-03-27T18:18:35.292Z,9.27
2019-03-27T18:21:03.681Z,9.23
2019-03-27T18:23:45.153Z,9.20
2019-03-27T18:26:02.185Z,9.03
2019-03-27T18:28:30.578Z,9.37
2019-03-27T18:30:58.981Z,9.47
2019-03-27T18:33:27.369Z,8.27
2019-03-27T18:35:55.845Z,9.53
2019-03-27T18:38:24.256Z,10.53
2019-03-27T18:40:52.658Z,9.60
2019-03-27T18:43:21.065Z,10.10
2019-03-27T18:45:49.477Z,10.60
2019-03-27T18:48:17.873Z,9.80
2019-03-27T18:50:46.271Z,10.17
2019-03-27T18:53:14.678Z,10.63
2019-03-27T18:55:43.064Z,10.57
2019-03-27T18:58:11.469Z,11.40
2019-03-27T19:00:39.867Z,11.53
2019-03-27T19:03:08.321Z,10.80
2019-03-27T19:05:36.722Z,10.47
2019-03-27T19:08:05.211Z,11.63
2019-03-27T19:10:33.596Z,10.70
2019-03-27T19:13:01.977Z,10.37
2019-03-27T19:15:30.409Z,10.10
2019-03-27T19:17:58.800Z,11.80
2019-03-27T19:20:27.205Z,11.37
2019-03-27T19:22:55.633Z,10.70
2019-03-27T19:25:24.024Z,10.87
2019-03-27T19:27:52.527Z,11.43
2019-03-27T19:30:22.626Z,11.87
2019-03-27T19:32:51.077Z,11.80
2019-03-27T19:35:19.551Z,12.43
2019-03-27T19:37:47.983Z,12.93
2019-03-27T19:40:16.444Z,12.97
2019-03-27T19:42:44.828Z,12.53
2019-03-27T19:45:15.033Z,12.90
2019-03-27T19:47:43.568Z,13.20
2019-03-27T19:50:12.045Z,13.17
2019-03-27T19:52:40.432Z,12.93
2019-03-27T19:55:09.753Z,13.00
2019-03-27T19:57:38.151Z,13.20
2019-03-27T20:00:09.286Z,12.73
2019-03-27T20:02:38.817Z,12.37
2019-03-27T20:05:08.136Z,12.00
2019-03-27T20:07:36.565Z,11.93
2019-03-27T20:10:07.630Z,12.33
2019-03-27T20:12:36.810Z,11.40
2019-03-27T20:15:12.357Z,11.67
2019-03-27T20:17:39.433Z,11.77
2019-03-27T20:20:10.242Z,10.83
2019-03-27T20:22:38.742Z,11.07
2019-03-27T20:25:09.525Z,11.47
2019-03-27T20:27:37.893Z,11.50
2019-03-27T20:30:12.244Z,10.67
2019-03-27T20:32:41.535Z,10.87
2019-03-27T20:35:10.041Z,10.40
2019-03-27T20:37:38.424Z,10.93
2019-03-27T20:40:08.660Z,11.37
2019-03-27T20:42:37.121Z,11.20
2019-03-27T20:45:07.202Z,11.30
2019-03-27T20:47:35.614Z,11.70
2019-03-27T20:50:06.513Z,11.80
2019-03-27T20:52:34.957Z,12.27
2019-03-27T20:55:05.137Z,12.00
2019-03-27T20:57:33.615Z,11.97
2019-03-27T21:00:02.068Z,11.83
2019-03-27T21:02:30.460Z,11.63
2019-03-27T21:04:58.861Z,12.23
2019-03-27T21:07:27.262Z,12.73
2019-03-27T21:09:55.649Z,12.80
2019-03-27T21:12:24.039Z,13.23
2019-03-27T21:14:52.428Z,13.83
2019-03-27T21:17:20.897Z,13.43
2019-03-27T21:19:49.285Z,12.60
2019-03-27T21:22:17.680Z,12.90
2019-03-27T21:24:46.080Z,13.80
2019-03-27T21:27:16.858Z,13.77
2019-03-27T21:29:44.603Z,14.33
2019-03-27T21:32:12.997Z,14.37
2019-03-27T21:34:41.400Z,15.27
2019-03-27T21:37:09.793Z,13.53
2019-03-27T21:39:38.180Z,14.17
2019-03-27T21:42:06.588Z,13.60
2019-03-27T21:44:34.991Z,13.90
2019-03-27T21:47:03.389Z,14.70
2019-03-27T21:49:31.778Z,15.73
2019-03-27T21:52:00.172Z,15.37
2019-03-27T21:54:28.585Z,16.30
2019-03-27T21:56:56.980Z,15.77
2019-03-27T21:59:25.369Z,16.63
2019-03-27T22:01:53.767Z,16.73
2019-03-27T22:04:22.152Z,18.00
2019-03-27T22:06:50.541Z,19.13
2019-03-27T22:09:18.931Z,19.47
2019-03-27T22:11:47.321Z,19.20
2019-03-27T22:14:15.717Z,17.53
2019-03-27T22:16:44.140Z,18.17
2019-03-27T22:19:12.563Z,20.27
2019-03-27T22:21:40.928Z,19.47
2019-03-27T22:24:09.313Z,20.70
2019-03-27T22:26:37.718Z,21.63
2019-03-27T22:29:06.101Z,21.00
2019-03-27T22:31:34.496Z,21.60
2019-03-27T22:34:02.885Z,23.30
2019-03-27T22:36:31.284Z,22.07
2019-03-27T22:38:59.668Z,22.27
2019-03-27T22:41:28.064Z,23.30
2019-03-27T22:43:56.456Z,22.60
2019-03-27T22:46:24.838Z,22.43
2019-03-27T22:48:53.245Z,22.27
2019-03-27T22:51:21.627Z,22.80
2019-03-27T22:53:50.017Z,22.77
2019-03-27T22:56:18.414Z,24.07
2019-03-27T22:58:46.797Z,23.23
2019-03-27T23:01:15.529Z,22.23
2019-03-27T23:03:43.930Z,21.90
2019-03-27T23:06:12.329Z,21.50
2019-03-27T23:08:40.720Z,21.70
2019-03-27T23:11:09.124Z,22.00
2019-03-27T23:13:37.513Z,21.50
2019-03-27T23:16:05.990Z,21.77
2019-03-27T23:18:34.373Z,20.50
2019-03-27T23:21:02.846Z,21.47
2019-03-27T23:23:31.331Z,21.27
2019-03-27T23:26:03.429Z,19.80
2019-03-27T23:28:29.823Z,20.17
2019-03-27T23:30:58.212Z,20.27
2019-03-27T23:33:26.617Z,19.47
2019-03-27T23:35:55.026Z,19.33
2019-03-27T23:38:23.404Z,20.07
2019-03-27T23:40:51.793Z,19.07
2019-03-27T23:43:20.190Z,18.83
2019-03-27T23:45:48.598Z,20.07
2019-03-27T23:48:16.989Z,18.17
2019-03-27T23:50:45.405Z,19.80
2019-03-27T23:53:13.788Z,20.07
2019-03-27T23:55:42.174Z,19.90
2019-03-27T23:58:10.581Z,20.03
